Alma, New York
Current Conditions -  °F | °C
As of 10:56 AM on Wednesday 26 Nov 2014 (Local Time) from KELZ Reporting Station
Overcast Overcast  
Wind Chill: 30°   Ceiling: 1700
Heat Index: 30°   Visibility: 10mi
Dew Point: 22°   Wind: 3mph
Humidity: 72%   Direction: 110°ESE
Pressure: 30.1"   Gusts: NA
Location:  42.01°N, 78.06°W
Report Text: KELZ 261556Z AUTO 11003KT 10SM OVC017 M01/M06 A3010 RMK AO2 SLP218 T10111056
Loading
Personal Weather Stations






























Interactive Weather Map New forecast layout! Learn more

10-Day Weather Forecast

Advertisements
Track Severe Weather on mobile